sensor_id;sensor_type;location;lat;lon;timestamp;P1;durP1;ratioP1;P2;durP2;ratioP2
10458;SDS011;5277;48.722;8.736;2023-07-20T00:01:07;7.75;;;4.15;;
10458;SDS011;5277;48.722;8.736;2023-07-20T00:03:36;10.43;;;4.47;;
10458;SDS011;5277;48.722;8.736;2023-07-20T00:06:06;10.95;;;3.83;;
10458;SDS011;5277;48.722;8.736;2023-07-20T00:08:38;6.55;;;2.75;;
10458;SDS011;5277;48.722;8.736;2023-07-20T00:11:03;6.03;;;2.90;;
10458;SDS011;5277;48.722;8.736;2023-07-20T00:13:29;11.73;;;5.18;;
10458;SDS011;5277;48.722;8.736;2023-07-20T00:15:55;9.00;;;4.22;;
10458;SDS011;5277;48.722;8.736;2023-07-20T00:18:20;8.25;;;3.92;;
10458;SDS011;5277;48.722;8.736;2023-07-20T00:20:49;9.77;;;5.13;;
10458;SDS011;5277;48.722;8.736;2023-07-20T00:23:17;5.70;;;3.38;;
10458;SDS011;5277;48.722;8.736;2023-07-20T00:25:48;5.35;;;2.70;;
10458;SDS011;5277;48.722;8.736;2023-07-20T00:28:14;5.53;;;2.50;;
10458;SDS011;5277;48.722;8.736;2023-07-20T00:30:43;6.70;;;3.58;;
10458;SDS011;5277;48.722;8.736;2023-07-20T00:33:10;9.43;;;4.43;;
10458;SDS011;5277;48.722;8.736;2023-07-20T00:35:36;9.77;;;4.28;;
10458;SDS011;5277;48.722;8.736;2023-07-20T00:38:03;6.90;;;3.70;;
10458;SDS011;5277;48.722;8.736;2023-07-20T00:40:35;7.72;;;3.80;;
10458;SDS011;5277;48.722;8.736;2023-07-20T00:43:02;6.50;;;3.90;;
10458;SDS011;5277;48.722;8.736;2023-07-20T00:45:34;5.03;;;3.08;;
10458;SDS011;5277;48.722;8.736;2023-07-20T00:48:01;4.35;;;2.75;;
10458;SDS011;5277;48.722;8.736;2023-07-20T00:50:34;7.00;;;2.67;;
10458;SDS011;5277;48.722;8.736;2023-07-20T00:53:00;8.90;;;3.30;;
10458;SDS011;5277;48.722;8.736;2023-07-20T00:55:30;5.93;;;2.80;;
10458;SDS011;5277;48.722;8.736;2023-07-20T00:57:59;3.75;;;2.47;;
10458;SDS011;5277;48.722;8.736;2023-07-20T01:00:25;3.88;;;2.55;;
10458;SDS011;5277;48.722;8.736;2023-07-20T01:02:51;2.78;;;2.10;;
10458;SDS011;5277;48.722;8.736;2023-07-20T01:05:22;6.50;;;2.50;;
10458;SDS011;5277;48.722;8.736;2023-07-20T01:07:58;4.38;;;2.40;;
10458;SDS011;5277;48.722;8.736;2023-07-20T01:13:17;3.42;;;2.10;;
10458;SDS011;5277;48.722;8.736;2023-07-20T01:15:50;3.38;;;2.22;;
10458;SDS011;5277;48.722;8.736;2023-07-20T01:18:18;2.70;;;2.13;;
10458;SDS011;5277;48.722;8.736;2023-07-20T01:20:47;2.35;;;2.15;;
10458;SDS011;5277;48.722;8.736;2023-07-20T01:28:56;5.60;;;2.60;;
10458;SDS011;5277;48.722;8.736;2023-07-20T01:31:38;4.60;;;2.40;;
10458;SDS011;5277;48.722;8.736;2023-07-20T01:34:08;4.60;;;2.45;;
10458;SDS011;5277;48.722;8.736;2023-07-20T01:36:39;3.97;;;1.90;;
10458;SDS011;5277;48.722;8.736;2023-07-20T01:39:12;4.07;;;2.40;;
10458;SDS011;5277;48.722;8.736;2023-07-20T01:41:40;3.65;;;2.17;;
10458;SDS011;5277;48.722;8.736;2023-07-20T01:44:07;3.47;;;2.10;;
10458;SDS011;5277;48.722;8.736;2023-07-20T01:46:33;4.10;;;2.50;;
10458;SDS011;5277;48.722;8.736;2023-07-20T01:48:59;4.65;;;2.40;;
10458;SDS011;5277;48.722;8.736;2023-07-20T01:51:27;6.20;;;2.22;;
10458;SDS011;5277;48.722;8.736;2023-07-20T01:53:53;2.88;;;2.03;;
10458;SDS011;5277;48.722;8.736;2023-07-20T01:56:24;5.57;;;2.22;;
10458;SDS011;5277;48.722;8.736;2023-07-20T01:58:54;3.33;;;1.88;;
10458;SDS011;5277;48.722;8.736;2023-07-20T02:01:20;2.83;;;2.25;;
10458;SDS011;5277;48.722;8.736;2023-07-20T02:03:46;3.17;;;2.17;;
10458;SDS011;5277;48.722;8.736;2023-07-20T02:06:12;4.95;;;2.40;;
10458;SDS011;5277;48.722;8.736;2023-07-20T02:08:37;3.90;;;2.30;;
10458;SDS011;5277;48.722;8.736;2023-07-20T02:11:03;3.28;;;2.00;;
10458;SDS011;5277;48.722;8.736;2023-07-20T02:13:29;5.75;;;2.00;;
10458;SDS011;5277;48.722;8.736;2023-07-20T02:15:55;6.53;;;2.08;;
10458;SDS011;5277;48.722;8.736;2023-07-20T02:18:21;3.65;;;2.05;;
10458;SDS011;5277;48.722;8.736;2023-07-20T02:20:46;4.00;;;2.17;;
10458;SDS011;5277;48.722;8.736;2023-07-20T02:23:12;6.53;;;2.40;;
10458;SDS011;5277;48.722;8.736;2023-07-20T02:25:40;6.75;;;2.30;;
10458;SDS011;5277;48.722;8.736;2023-07-20T02:28:09;3.47;;;2.20;;
10458;SDS011;5277;48.722;8.736;2023-07-20T02:30:39;4.97;;;2.55;;
10458;SDS011;5277;48.722;8.736;2023-07-20T02:33:05;3.22;;;2.00;;
10458;SDS011;5277;48.722;8.736;2023-07-20T02:35:32;4.30;;;2.03;;
10458;SDS011;5277;48.722;8.736;2023-07-20T02:37:57;3.38;;;2.30;;
10458;SDS011;5277;48.722;8.736;2023-07-20T02:40:23;6.55;;;2.03;;
10458;SDS011;5277;48.722;8.736;2023-07-20T02:42:49;4.38;;;2.25;;
10458;SDS011;5277;48.722;8.736;2023-07-20T02:45:14;3.25;;;2.30;;
10458;SDS011;5277;48.722;8.736;2023-07-20T02:47:40;3.03;;;1.92;;
10458;SDS011;5277;48.722;8.736;2023-07-20T02:50:07;2.95;;;2.30;;
10458;SDS011;5277;48.722;8.736;2023-07-20T02:52:33;3.50;;;2.47;;
10458;SDS011;5277;48.722;8.736;2023-07-20T02:54:58;3.42;;;2.30;;
10458;SDS011;5277;48.722;8.736;2023-07-20T02:57:25;3.70;;;2.45;;
10458;SDS011;5277;48.722;8.736;2023-07-20T02:59:50;3.05;;;2.28;;
10458;SDS011;5277;48.722;8.736;2023-07-20T03:02:16;4.40;;;2.33;;
10458;SDS011;5277;48.722;8.736;2023-07-20T03:04:41;2.67;;;2.10;;
10458;SDS011;5277;48.722;8.736;2023-07-20T03:07:07;2.67;;;2.30;;
10458;SDS011;5277;48.722;8.736;2023-07-20T03:09:33;3.28;;;2.35;;
10458;SDS011;5277;48.722;8.736;2023-07-20T03:11:59;5.53;;;2.75;;
10458;SDS011;5277;48.722;8.736;2023-07-20T03:14:25;3.92;;;2.35;;
10458;SDS011;5277;48.722;8.736;2023-07-20T03:16:50;2.63;;;2.00;;
10458;SDS011;5277;48.722;8.736;2023-07-20T03:19:16;4.93;;;2.50;;
10458;SDS011;5277;48.722;8.736;2023-07-20T03:21:41;2.58;;;2.00;;
10458;SDS011;5277;48.722;8.736;2023-07-20T03:24:07;6.30;;;2.28;;
10458;SDS011;5277;48.722;8.736;2023-07-20T03:26:34;3.20;;;2.20;;
10458;SDS011;5277;48.722;8.736;2023-07-20T03:29:00;4.13;;;2.40;;
10458;SDS011;5277;48.722;8.736;2023-07-20T03:31:25;4.07;;;2.03;;
10458;SDS011;5277;48.722;8.736;2023-07-20T03:33:51;4.30;;;2.50;;
10458;SDS011;5277;48.722;8.736;2023-07-20T03:36:17;4.60;;;2.20;;
10458;SDS011;5277;48.722;8.736;2023-07-20T03:38:43;3.65;;;2.70;;
10458;SDS011;5277;48.722;8.736;2023-07-20T03:41:08;4.72;;;2.13;;
10458;SDS011;5277;48.722;8.736;2023-07-20T03:43:34;5.13;;;2.28;;
10458;SDS011;5277;48.722;8.736;2023-07-20T03:46:00;3.97;;;2.22;;
10458;SDS011;5277;48.722;8.736;2023-07-20T03:48:25;3.17;;;2.40;;
10458;SDS011;5277;48.722;8.736;2023-07-20T03:50:52;3.03;;;2.03;;
10458;SDS011;5277;48.722;8.736;2023-07-20T03:53:19;3.20;;;2.35;;
10458;SDS011;5277;48.722;8.736;2023-07-20T03:55:48;3.55;;;2.70;;
10458;SDS011;5277;48.722;8.736;2023-07-20T03:58:14;3.60;;;2.08;;
10458;SDS011;5277;48.722;8.736;2023-07-20T04:00:43;3.83;;;2.20;;
10458;SDS011;5277;48.722;8.736;2023-07-20T04:03:10;3.80;;;2.30;;
10458;SDS011;5277;48.722;8.736;2023-07-20T04:05:35;3.35;;;2.30;;
10458;SDS011;5277;48.722;8.736;2023-07-20T04:08:01;5.25;;;2.17;;
10458;SDS011;5277;48.722;8.736;2023-07-20T04:10:27;3.47;;;2.28;;
10458;SDS011;5277;48.722;8.736;2023-07-20T04:12:52;3.35;;;2.53;;
10458;SDS011;5277;48.722;8.736;2023-07-20T04:15:18;2.90;;;2.15;;
10458;SDS011;5277;48.722;8.736;2023-07-20T04:17:44;5.35;;;2.35;;
10458;SDS011;5277;48.722;8.736;2023-07-20T04:20:10;3.75;;;2.25;;
10458;SDS011;5277;48.722;8.736;2023-07-20T04:22:36;2.78;;;2.03;;
10458;SDS011;5277;48.722;8.736;2023-07-20T04:25:02;5.32;;;2.08;;
10458;SDS011;5277;48.722;8.736;2023-07-20T04:27:28;4.55;;;2.35;;
10458;SDS011;5277;48.722;8.736;2023-07-20T04:29:54;5.35;;;2.50;;
10458;SDS011;5277;48.722;8.736;2023-07-20T04:32:20;3.75;;;2.33;;
10458;SDS011;5277;48.722;8.736;2023-07-20T04:34:46;2.92;;;2.20;;
10458;SDS011;5277;48.722;8.736;2023-07-20T04:37:14;3.38;;;2.10;;
10458;SDS011;5277;48.722;8.736;2023-07-20T04:39:40;2.80;;;2.03;;
10458;SDS011;5277;48.722;8.736;2023-07-20T04:42:06;3.63;;;2.00;;
10458;SDS011;5277;48.722;8.736;2023-07-20T04:44:31;2.97;;;2.20;;
10458;SDS011;5277;48.722;8.736;2023-07-20T04:46:57;3.75;;;2.28;;
10458;SDS011;5277;48.722;8.736;2023-07-20T04:49:23;4.47;;;1.95;;
10458;SDS011;5277;48.722;8.736;2023-07-20T04:51:48;3.00;;;2.03;;
10458;SDS011;5277;48.722;8.736;2023-07-20T04:54:14;5.45;;;2.30;;
10458;SDS011;5277;48.722;8.736;2023-07-20T04:56:42;21.60;;;2.63;;
10458;SDS011;5277;48.722;8.736;2023-07-20T04:59:07;3.88;;;2.10;;
10458;SDS011;5277;48.722;8.736;2023-07-20T05:01:33;5.78;;;2.40;;
10458;SDS011;5277;48.722;8.736;2023-07-20T05:03:59;3.13;;;2.20;;
10458;SDS011;5277;48.722;8.736;2023-07-20T05:06:25;3.63;;;2.13;;
10458;SDS011;5277;48.722;8.736;2023-07-20T05:08:51;4.28;;;2.40;;
10458;SDS011;5277;48.722;8.736;2023-07-20T05:11:16;3.50;;;2.20;;
10458;SDS011;5277;48.722;8.736;2023-07-20T05:13:42;3.25;;;2.33;;
10458;SDS011;5277;48.722;8.736;2023-07-20T05:16:07;4.55;;;2.30;;
10458;SDS011;5277;48.722;8.736;2023-07-20T05:18:33;3.58;;;2.22;;
10458;SDS011;5277;48.722;8.736;2023-07-20T05:20:59;3.70;;;2.20;;
10458;SDS011;5277;48.722;8.736;2023-07-20T05:23:24;4.15;;;2.00;;
10458;SDS011;5277;48.722;8.736;2023-07-20T05:25:54;6.25;;;2.40;;
10458;SDS011;5277;48.722;8.736;2023-07-20T05:28:23;5.53;;;2.35;;
10458;SDS011;5277;48.722;8.736;2023-07-20T05:30:49;3.70;;;2.13;;
10458;SDS011;5277;48.722;8.736;2023-07-20T05:33:16;4.90;;;2.35;;
10458;SDS011;5277;48.722;8.736;2023-07-20T05:35:43;2.88;;;2.10;;
10458;SDS011;5277;48.722;8.736;2023-07-20T05:38:08;4.13;;;2.05;;
10458;SDS011;5277;48.722;8.736;2023-07-20T05:40:37;3.97;;;2.50;;
10458;SDS011;5277;48.722;8.736;2023-07-20T05:43:05;3.65;;;2.53;;
10458;SDS011;5277;48.722;8.736;2023-07-20T05:45:30;6.30;;;2.25;;
10458;SDS011;5277;48.722;8.736;2023-07-20T05:47:56;4.68;;;2.40;;
10458;SDS011;5277;48.722;8.736;2023-07-20T05:50:22;4.07;;;2.40;;
10458;SDS011;5277;48.722;8.736;2023-07-20T05:52:47;3.28;;;2.22;;
10458;SDS011;5277;48.722;8.736;2023-07-20T05:55:13;2.58;;;2.15;;
10458;SDS011;5277;48.722;8.736;2023-07-20T05:57:39;2.53;;;2.13;;
10458;SDS011;5277;48.722;8.736;2023-07-20T06:00:07;9.77;;;2.40;;
10458;SDS011;5277;48.722;8.736;2023-07-20T06:02:33;4.20;;;2.63;;
10458;SDS011;5277;48.722;8.736;2023-07-20T06:04:59;3.25;;;2.20;;
10458;SDS011;5277;48.722;8.736;2023-07-20T06:07:24;4.43;;;2.30;;
10458;SDS011;5277;48.722;8.736;2023-07-20T06:09:50;2.90;;;2.30;;
10458;SDS011;5277;48.722;8.736;2023-07-20T06:12:16;4.80;;;2.42;;
10458;SDS011;5277;48.722;8.736;2023-07-20T06:14:42;2.90;;;2.30;;
10458;SDS011;5277;48.722;8.736;2023-07-20T06:17:07;3.30;;;2.25;;
10458;SDS011;5277;48.722;8.736;2023-07-20T06:19:33;3.50;;;2.03;;
10458;SDS011;5277;48.722;8.736;2023-07-20T06:21:59;3.08;;;2.25;;
10458;SDS011;5277;48.722;8.736;2023-07-20T06:24:24;2.88;;;1.83;;
10458;SDS011;5277;48.722;8.736;2023-07-20T06:26:50;5.80;;;2.15;;
10458;SDS011;5277;48.722;8.736;2023-07-20T06:29:16;3.28;;;2.10;;
10458;SDS011;5277;48.722;8.736;2023-07-20T06:31:41;5.47;;;2.05;;
10458;SDS011;5277;48.722;8.736;2023-07-20T06:34:07;3.47;;;2.28;;
10458;SDS011;5277;48.722;8.736;2023-07-20T06:36:32;4.00;;;2.60;;
10458;SDS011;5277;48.722;8.736;2023-07-20T06:38:58;2.58;;;2.05;;
10458;SDS011;5277;48.722;8.736;2023-07-20T06:41:24;4.10;;;2.55;;
10458;SDS011;5277;48.722;8.736;2023-07-20T06:43:49;3.17;;;1.85;;
10458;SDS011;5277;48.722;8.736;2023-07-20T06:46:15;3.22;;;2.05;;
10458;SDS011;5277;48.722;8.736;2023-07-20T06:48:41;3.55;;;2.20;;
10458;SDS011;5277;48.722;8.736;2023-07-20T06:51:07;3.40;;;2.10;;
10458;SDS011;5277;48.722;8.736;2023-07-20T06:53:32;2.72;;;2.03;;
10458;SDS011;5277;48.722;8.736;2023-07-20T06:59:18;3.05;;;2.20;;
10458;SDS011;5277;48.722;8.736;2023-07-20T07:07:35;4.25;;;2.20;;
10458;SDS011;5277;48.722;8.736;2023-07-20T07:10:01;2.83;;;1.98;;
10458;SDS011;5277;48.722;8.736;2023-07-20T07:12:29;3.67;;;2.20;;
10458;SDS011;5277;48.722;8.736;2023-07-20T07:14:55;3.60;;;1.90;;
10458;SDS011;5277;48.722;8.736;2023-07-20T07:17:21;5.60;;;2.00;;
10458;SDS011;5277;48.722;8.736;2023-07-20T07:19:46;2.83;;;1.88;;
10458;SDS011;5277;48.722;8.736;2023-07-20T07:22:12;3.95;;;2.15;;
10458;SDS011;5277;48.722;8.736;2023-07-20T07:24:38;3.50;;;2.10;;
10458;SDS011;5277;48.722;8.736;2023-07-20T07:27:06;2.55;;;1.92;;
10458;SDS011;5277;48.722;8.736;2023-07-20T07:29:33;2.83;;;2.08;;
10458;SDS011;5277;48.722;8.736;2023-07-20T07:31:58;4.30;;;2.20;;
10458;SDS011;5277;48.722;8.736;2023-07-20T07:34:24;3.83;;;1.92;;
10458;SDS011;5277;48.722;8.736;2023-07-20T07:36:50;4.50;;;2.17;;
10458;SDS011;5277;48.722;8.736;2023-07-20T07:39:15;3.53;;;1.98;;
10458;SDS011;5277;48.722;8.736;2023-07-20T07:41:41;3.88;;;1.98;;
10458;SDS011;5277;48.722;8.736;2023-07-20T07:44:06;3.50;;;2.45;;
10458;SDS011;5277;48.722;8.736;2023-07-20T07:46:32;2.20;;;2.00;;
10458;SDS011;5277;48.722;8.736;2023-07-20T07:48:58;4.35;;;2.08;;
10458;SDS011;5277;48.722;8.736;2023-07-20T07:51:23;3.40;;;2.13;;
10458;SDS011;5277;48.722;8.736;2023-07-20T07:53:49;3.33;;;2.15;;
10458;SDS011;5277;48.722;8.736;2023-07-20T07:56:15;5.38;;;2.03;;
10458;SDS011;5277;48.722;8.736;2023-07-20T07:58:42;4.97;;;2.20;;
10458;SDS011;5277;48.722;8.736;2023-07-20T08:01:09;3.53;;;1.98;;
10458;SDS011;5277;48.722;8.736;2023-07-20T08:03:37;4.05;;;2.15;;
10458;SDS011;5277;48.722;8.736;2023-07-20T08:06:03;2.45;;;1.60;;
10458;SDS011;5277;48.722;8.736;2023-07-20T08:08:31;4.43;;;1.88;;
10458;SDS011;5277;48.722;8.736;2023-07-20T08:10:57;3.55;;;1.80;;
10458;SDS011;5277;48.722;8.736;2023-07-20T08:13:28;2.70;;;1.80;;
10458;SDS011;5277;48.722;8.736;2023-07-20T08:15:54;2.97;;;1.60;;
10458;SDS011;5277;48.722;8.736;2023-07-20T08:18:22;2.30;;;1.42;;
10458;SDS011;5277;48.722;8.736;2023-07-20T08:20:53;4.32;;;1.85;;
10458;SDS011;5277;48.722;8.736;2023-07-20T08:23:25;2.85;;;1.52;;
10458;SDS011;5277;48.722;8.736;2023-07-20T08:25:52;1.75;;;1.48;;
10458;SDS011;5277;48.722;8.736;2023-07-20T08:28:18;2.60;;;1.88;;
10458;SDS011;5277;48.722;8.736;2023-07-20T08:30:45;4.70;;;1.67;;
10458;SDS011;5277;48.722;8.736;2023-07-20T08:33:15;3.75;;;1.55;;
10458;SDS011;5277;48.722;8.736;2023-07-20T08:35:44;3.00;;;1.80;;
10458;SDS011;5277;48.722;8.736;2023-07-20T08:38:10;4.80;;;1.40;;
10458;SDS011;5277;48.722;8.736;2023-07-20T08:40:39;2.40;;;1.50;;
10458;SDS011;5277;48.722;8.736;2023-07-20T08:43:06;2.30;;;1.50;;
10458;SDS011;5277;48.722;8.736;2023-07-20T08:45:34;3.80;;;1.75;;
10458;SDS011;5277;48.722;8.736;2023-07-20T08:48:03;3.92;;;1.65;;
10458;SDS011;5277;48.722;8.736;2023-07-20T08:50:31;2.33;;;1.55;;
10458;SDS011;5277;48.722;8.736;2023-07-20T08:52:57;3.38;;;1.77;;
10458;SDS011;5277;48.722;8.736;2023-07-20T08:55:24;3.22;;;1.35;;
10458;SDS011;5277;48.722;8.736;2023-07-20T08:57:52;4.38;;;1.42;;
10458;SDS011;5277;48.722;8.736;2023-07-20T09:00:20;1.98;;;1.42;;
10458;SDS011;5277;48.722;8.736;2023-07-20T09:02:47;2.55;;;1.60;;
10458;SDS011;5277;48.722;8.736;2023-07-20T09:05:17;2.58;;;1.67;;
10458;SDS011;5277;48.722;8.736;2023-07-20T09:07:43;3.10;;;1.60;;
10458;SDS011;5277;48.722;8.736;2023-07-20T09:10:09;1.52;;;1.30;;
10458;SDS011;5277;48.722;8.736;2023-07-20T09:12:35;2.17;;;1.50;;
10458;SDS011;5277;48.722;8.736;2023-07-20T09:15:03;2.90;;;1.60;;
10458;SDS011;5277;48.722;8.736;2023-07-20T09:17:29;2.22;;;1.45;;
10458;SDS011;5277;48.722;8.736;2023-07-20T09:19:55;1.92;;;1.35;;
10458;SDS011;5277;48.722;8.736;2023-07-20T09:22:21;2.65;;;1.60;;
10458;SDS011;5277;48.722;8.736;2023-07-20T09:24:46;3.00;;;1.45;;
10458;SDS011;5277;48.722;8.736;2023-07-20T09:27:12;1.95;;;1.63;;
10458;SDS011;5277;48.722;8.736;2023-07-20T09:29:53;2.70;;;1.48;;
10458;SDS011;5277;48.722;8.736;2023-07-20T09:32:19;2.17;;;1.33;;
10458;SDS011;5277;48.722;8.736;2023-07-20T09:34:46;2.03;;;1.30;;
10458;SDS011;5277;48.722;8.736;2023-07-20T09:37:12;7.40;;;1.60;;
10458;SDS011;5277;48.722;8.736;2023-07-20T09:39:44;2.28;;;1.42;;
10458;SDS011;5277;48.722;8.736;2023-07-20T09:42:13;1.42;;;1.33;;
10458;SDS011;5277;48.722;8.736;2023-07-20T09:44:40;3.95;;;1.60;;
10458;SDS011;5277;48.722;8.736;2023-07-20T09:47:08;2.28;;;1.13;;
10458;SDS011;5277;48.722;8.736;2023-07-20T09:49:40;3.38;;;1.50;;
10458;SDS011;5277;48.722;8.736;2023-07-20T09:52:07;10.77;;;1.40;;
10458;SDS011;5277;48.722;8.736;2023-07-20T09:54:34;1.52;;;1.40;;
10458;SDS011;5277;48.722;8.736;2023-07-20T09:57:02;2.58;;;1.55;;
10458;SDS011;5277;48.722;8.736;2023-07-20T09:59:28;1.70;;;1.30;;
10458;SDS011;5277;48.722;8.736;2023-07-20T10:01:54;1.52;;;1.30;;
10458;SDS011;5277;48.722;8.736;2023-07-20T10:04:24;3.28;;;1.60;;
10458;SDS011;5277;48.722;8.736;2023-07-20T10:06:51;2.35;;;1.33;;
10458;SDS011;5277;48.722;8.736;2023-07-20T10:09:19;1.50;;;1.27;;
10458;SDS011;5277;48.722;8.736;2023-07-20T10:11:52;2.42;;;1.20;;
10458;SDS011;5277;48.722;8.736;2023-07-20T10:14:22;2.72;;;1.33;;
10458;SDS011;5277;48.722;8.736;2023-07-20T10:16:51;2.63;;;1.30;;
10458;SDS011;5277;48.722;8.736;2023-07-20T10:19:23;2.17;;;1.38;;
10458;SDS011;5277;48.722;8.736;2023-07-20T10:22:15;2.92;;;1.40;;
10458;SDS011;5277;48.722;8.736;2023-07-20T10:24:45;2.53;;;1.40;;
10458;SDS011;5277;48.722;8.736;2023-07-20T10:27:12;2.13;;;1.58;;
10458;SDS011;5277;48.722;8.736;2023-07-20T10:29:37;1.30;;;1.20;;
10458;SDS011;5277;48.722;8.736;2023-07-20T10:32:05;1.55;;;1.25;;
10458;SDS011;5277;48.722;8.736;2023-07-20T10:34:32;1.85;;;1.30;;
10458;SDS011;5277;48.722;8.736;2023-07-20T10:36:58;1.70;;;1.50;;
10458;SDS011;5277;48.722;8.736;2023-07-20T10:39:24;3.95;;;1.15;;
10458;SDS011;5277;48.722;8.736;2023-07-20T10:42:13;1.42;;;1.10;;
10458;SDS011;5277;48.722;8.736;2023-07-20T10:44:41;2.35;;;1.40;;
10458;SDS011;5277;48.722;8.736;2023-07-20T10:47:11;3.05;;;1.38;;
10458;SDS011;5277;48.722;8.736;2023-07-20T10:52:37;1.85;;;1.58;;
10458;SDS011;5277;48.722;8.736;2023-07-20T10:55:11;2.00;;;1.25;;
10458;SDS011;5277;48.722;8.736;2023-07-20T10:57:40;2.75;;;1.30;;
10458;SDS011;5277;48.722;8.736;2023-07-20T11:00:12;1.65;;;1.30;;
10458;SDS011;5277;48.722;8.736;2023-07-20T11:02:46;1.35;;;1.25;;
10458;SDS011;5277;48.722;8.736;2023-07-20T11:07:57;2.47;;;1.08;;
10458;SDS011;5277;48.722;8.736;2023-07-20T11:10:22;2.17;;;1.20;;
10458;SDS011;5277;48.722;8.736;2023-07-20T11:15:53;1.55;;;1.33;;
10458;SDS011;5277;48.722;8.736;2023-07-20T11:18:28;2.03;;;1.23;;
10458;SDS011;5277;48.722;8.736;2023-07-20T11:20:54;2.75;;;1.50;;
10458;SDS011;5277;48.722;8.736;2023-07-20T11:23:19;2.80;;;1.55;;
10458;SDS011;5277;48.722;8.736;2023-07-20T11:25:45;1.75;;;1.40;;
10458;SDS011;5277;48.722;8.736;2023-07-20T11:28:11;1.45;;;1.33;;
10458;SDS011;5277;48.722;8.736;2023-07-20T11:30:37;1.73;;;1.30;;
10458;SDS011;5277;48.722;8.736;2023-07-20T11:33:04;1.80;;;1.35;;
10458;SDS011;5277;48.722;8.736;2023-07-20T11:35:30;1.67;;;1.30;;
10458;SDS011;5277;48.722;8.736;2023-07-20T11:37:59;2.85;;;1.42;;
10458;SDS011;5277;48.722;8.736;2023-07-20T11:40:25;3.00;;;1.67;;
10458;SDS011;5277;48.722;8.736;2023-07-20T11:42:50;3.22;;;1.40;;
10458;SDS011;5277;48.722;8.736;2023-07-20T11:45:16;1.50;;;1.40;;
10458;SDS011;5277;48.722;8.736;2023-07-20T11:47:43;2.35;;;1.75;;
10458;SDS011;5277;48.722;8.736;2023-07-20T11:50:09;1.77;;;1.67;;
10458;SDS011;5277;48.722;8.736;2023-07-20T11:52:35;1.67;;;1.30;;
10458;SDS011;5277;48.722;8.736;2023-07-20T11:55:02;2.63;;;1.40;;
10458;SDS011;5277;48.722;8.736;2023-07-20T11:57:29;4.60;;;1.50;;
10458;SDS011;5277;48.722;8.736;2023-07-20T12:02:26;2.28;;;1.45;;
10458;SDS011;5277;48.722;8.736;2023-07-20T12:04:52;1.85;;;1.30;;
10458;SDS011;5277;48.722;8.736;2023-07-20T12:07:19;1.50;;;1.40;;
10458;SDS011;5277;48.722;8.736;2023-07-20T12:10:02;2.03;;;1.50;;
10458;SDS011;5277;48.722;8.736;2023-07-20T12:12:38;3.75;;;1.65;;
10458;SDS011;5277;48.722;8.736;2023-07-20T12:15:20;1.50;;;1.40;;
10458;SDS011;5277;48.722;8.736;2023-07-20T12:17:53;4.90;;;1.50;;
10458;SDS011;5277;48.722;8.736;2023-07-20T12:20:27;3.75;;;1.50;;
10458;SDS011;5277;48.722;8.736;2023-07-20T12:22:58;3.45;;;1.40;;
10458;SDS011;5277;48.722;8.736;2023-07-20T12:25:37;3.25;;;1.40;;
10458;SDS011;5277;48.722;8.736;2023-07-20T12:28:11;3.67;;;1.65;;
10458;SDS011;5277;48.722;8.736;2023-07-20T12:30:39;1.88;;;1.30;;
10458;SDS011;5277;48.722;8.736;2023-07-20T12:33:05;2.15;;;1.80;;
10458;SDS011;5277;48.722;8.736;2023-07-20T12:35:31;2.15;;;1.70;;
10458;SDS011;5277;48.722;8.736;2023-07-20T12:37:57;8.85;;;2.22;;
10458;SDS011;5277;48.722;8.736;2023-07-20T12:40:23;4.03;;;1.52;;
10458;SDS011;5277;48.722;8.736;2023-07-20T12:42:49;2.20;;;1.58;;
10458;SDS011;5277;48.722;8.736;2023-07-20T12:45:15;2.60;;;1.45;;
10458;SDS011;5277;48.722;8.736;2023-07-20T12:47:41;2.80;;;1.27;;
10458;SDS011;5277;48.722;8.736;2023-07-20T12:50:08;3.40;;;1.98;;
10458;SDS011;5277;48.722;8.736;2023-07-20T12:52:37;2.55;;;1.40;;
10458;SDS011;5277;48.722;8.736;2023-07-20T12:55:05;1.55;;;1.45;;
10458;SDS011;5277;48.722;8.736;2023-07-20T12:57:31;6.43;;;1.90;;
10458;SDS011;5277;48.722;8.736;2023-07-20T12:59:57;3.20;;;1.80;;
10458;SDS011;5277;48.722;8.736;2023-07-20T13:02:23;2.90;;;1.40;;
10458;SDS011;5277;48.722;8.736;2023-07-20T13:04:49;2.78;;;1.80;;
10458;SDS011;5277;48.722;8.736;2023-07-20T13:07:14;3.03;;;1.50;;
10458;SDS011;5277;48.722;8.736;2023-07-20T13:09:40;6.90;;;1.80;;
10458;SDS011;5277;48.722;8.736;2023-07-20T13:12:05;1.83;;;1.55;;
10458;SDS011;5277;48.722;8.736;2023-07-20T13:14:31;1.80;;;1.30;;
10458;SDS011;5277;48.722;8.736;2023-07-20T13:16:57;4.90;;;1.42;;
10458;SDS011;5277;48.722;8.736;2023-07-20T13:19:22;3.22;;;1.60;;
10458;SDS011;5277;48.722;8.736;2023-07-20T13:21:48;3.50;;;1.40;;
10458;SDS011;5277;48.722;8.736;2023-07-20T13:24:13;2.28;;;1.52;;
10458;SDS011;5277;48.722;8.736;2023-07-20T13:26:40;2.10;;;1.65;;
10458;SDS011;5277;48.722;8.736;2023-07-20T13:29:05;5.40;;;1.60;;
10458;SDS011;5277;48.722;8.736;2023-07-20T13:31:31;4.63;;;1.70;;
10458;SDS011;5277;48.722;8.736;2023-07-20T13:33:57;2.22;;;1.67;;
10458;SDS011;5277;48.722;8.736;2023-07-20T13:36:23;1.52;;;1.40;;
10458;SDS011;5277;48.722;8.736;2023-07-20T13:38:49;2.13;;;1.35;;
10458;SDS011;5277;48.722;8.736;2023-07-20T13:41:14;1.83;;;1.10;;
10458;SDS011;5277;48.722;8.736;2023-07-20T13:43:41;1.90;;;1.40;;
10458;SDS011;5277;48.722;8.736;2023-07-20T13:46:07;2.03;;;1.40;;
10458;SDS011;5277;48.722;8.736;2023-07-20T13:48:32;1.92;;;1.40;;
10458;SDS011;5277;48.722;8.736;2023-07-20T13:50:58;2.30;;;1.45;;
10458;SDS011;5277;48.722;8.736;2023-07-20T13:53:23;2.83;;;1.40;;
10458;SDS011;5277;48.722;8.736;2023-07-20T13:55:49;2.35;;;1.50;;
10458;SDS011;5277;48.722;8.736;2023-07-20T13:58:15;1.65;;;1.40;;
10458;SDS011;5277;48.722;8.736;2023-07-20T14:00:41;1.98;;;1.20;;
10458;SDS011;5277;48.722;8.736;2023-07-20T14:03:06;1.90;;;1.40;;
10458;SDS011;5277;48.722;8.736;2023-07-20T14:05:32;1.90;;;1.38;;
10458;SDS011;5277;48.722;8.736;2023-07-20T14:07:58;1.67;;;1.30;;
10458;SDS011;5277;48.722;8.736;2023-07-20T14:10:24;3.03;;;1.17;;
10458;SDS011;5277;48.722;8.736;2023-07-20T14:12:50;2.08;;;1.58;;
10458;SDS011;5277;48.722;8.736;2023-07-20T14:15:15;2.70;;;1.40;;
10458;SDS011;5277;48.722;8.736;2023-07-20T14:17:43;2.45;;;1.42;;
10458;SDS011;5277;48.722;8.736;2023-07-20T14:20:09;2.03;;;1.50;;
10458;SDS011;5277;48.722;8.736;2023-07-20T14:22:35;2.10;;;1.23;;
10458;SDS011;5277;48.722;8.736;2023-07-20T14:25:00;1.75;;;1.17;;
10458;SDS011;5277;48.722;8.736;2023-07-20T14:27:26;1.40;;;1.30;;
10458;SDS011;5277;48.722;8.736;2023-07-20T14:29:51;1.67;;;1.30;;
10458;SDS011;5277;48.722;8.736;2023-07-20T14:32:18;1.48;;;1.38;;
10458;SDS011;5277;48.722;8.736;2023-07-20T14:34:43;1.85;;;1.40;;
10458;SDS011;5277;48.722;8.736;2023-07-20T14:37:09;1.40;;;1.23;;
10458;SDS011;5277;48.722;8.736;2023-07-20T14:39:35;1.88;;;1.10;;
10458;SDS011;5277;48.722;8.736;2023-07-20T14:42:00;4.18;;;1.60;;
10458;SDS011;5277;48.722;8.736;2023-07-20T14:44:28;1.90;;;1.50;;
10458;SDS011;5277;48.722;8.736;2023-07-20T14:46:54;1.63;;;1.10;;
10458;SDS011;5277;48.722;8.736;2023-07-20T14:49:20;3.78;;;1.50;;
10458;SDS011;5277;48.722;8.736;2023-07-20T14:51:45;1.60;;;1.30;;
10458;SDS011;5277;48.722;8.736;2023-07-20T14:54:12;2.28;;;1.40;;
10458;SDS011;5277;48.722;8.736;2023-07-20T14:56:38;1.70;;;1.40;;
10458;SDS011;5277;48.722;8.736;2023-07-20T14:59:10;7.15;;;1.60;;
10458;SDS011;5277;48.722;8.736;2023-07-20T15:01:35;1.52;;;1.25;;
10458;SDS011;5277;48.722;8.736;2023-07-20T15:04:01;2.05;;;1.70;;
10458;SDS011;5277;48.722;8.736;2023-07-20T15:06:27;1.70;;;1.20;;
10458;SDS011;5277;48.722;8.736;2023-07-20T15:08:55;1.60;;;1.27;;
10458;SDS011;5277;48.722;8.736;2023-07-20T15:11:20;3.55;;;1.30;;
10458;SDS011;5277;48.722;8.736;2023-07-20T15:13:46;2.20;;;1.20;;
10458;SDS011;5277;48.722;8.736;2023-07-20T15:16:12;2.72;;;1.30;;
10458;SDS011;5277;48.722;8.736;2023-07-20T15:18:37;3.00;;;1.30;;
10458;SDS011;5277;48.722;8.736;2023-07-20T15:21:03;1.60;;;1.25;;
10458;SDS011;5277;48.722;8.736;2023-07-20T15:23:28;2.58;;;1.30;;
10458;SDS011;5277;48.722;8.736;2023-07-20T15:25:54;1.98;;;1.40;;
10458;SDS011;5277;48.722;8.736;2023-07-20T15:28:21;2.33;;;1.30;;